Time;durP1;ratioP1;P1;durP2;ratioP2;P2;SDS_P1;SDS_P2;PMS_P1;PMS_P2;Temp;Humidity;BMP_temperature;BMP_pressure;BME280_temperature;BME280_humidity;BME280_pressure;Samples;Min_cycle;Max_cycle;Signal;HPM_P1;HPM_P2
2022/07/30 00:00:42;;;;;;;;;8.75;5.75;;;;;25.89;33.33;101196.75;4879987;29;46598;-62
2022/07/30 00:03:08;;;;;;;;;5.50;4.25;;;;;25.94;33.27;101207.94;4880752;29;45244;-62
2022/07/30 00:05:33;;;;;;;;;5.00;5.00;;;;;25.97;33.22;101215.75;4864107;29;45244;-61
2022/07/30 00:07:59;;;;;;;;;4.25;4.25;;;;;25.88;32.86;101195.91;4863910;29;45276;-63
2022/07/30 00:10:24;;;;;;;;;10.25;6.25;;;;;26.02;33.24;101215.66;4880312;29;46368;-63
2022/07/30 00:12:50;;;;;;;;;5.50;5.00;;;;;26.01;33.52;101215.97;4880217;29;45374;-62
2022/07/30 00:15:15;;;;;;;;;5.00;5.00;;;;;25.91;33.43;101214.16;4880502;29;45304;-62
2022/07/30 00:17:41;;;;;;;;;8.25;5.00;;;;;25.62;33.54;101167.38;4881128;29;45414;-62
2022/07/30 00:20:07;;;;;;;;;5.25;4.25;;;;;25.79;33.51;101209.84;4863504;29;46435;-62
2022/07/30 00:22:32;;;;;;;;;5.25;5.25;;;;;25.74;33.45;101212.72;4879316;29;45892;-61
2022/07/30 00:24:57;;;;;;;;;7.00;6.00;;;;;25.54;33.93;101186.59;4863910;29;45355;-62
2022/07/30 00:27:23;;;;;;;;;5.75;4.50;;;;;25.66;34.43;101202.19;4845025;29;45476;-62
2022/07/30 00:29:49;;;;;;;;;4.25;3.00;;;;;25.75;33.92;101203.16;4844955;29;46707;-62
2022/07/30 00:32:14;;;;;;;;;5.00;4.00;;;;;25.83;34.11;101204.44;4861369;29;45487;-62
2022/07/30 00:34:40;;;;;;;;;7.00;5.00;;;;;25.78;34.30;101202.53;4860399;29;45439;-62
2022/07/30 00:37:05;;;;;;;;;7.50;4.75;;;;;25.72;34.08;101209.41;4860607;29;45400;-61
2022/07/30 00:39:31;;;;;;;;;7.25;5.25;;;;;25.57;34.06;101169.13;4859804;29;45644;-61
2022/07/30 00:42:02;;;;;;;;;4.50;4.50;;;;;25.61;34.39;101174.16;4861551;29;45456;-62
2022/07/30 00:44:27;;;;;;;;;4.40;4.40;;;;;25.78;34.05;101196.09;4844746;29;45449;-62
2022/07/30 00:46:53;;;;;;;;;5.25;5.25;;;;;25.79;34.28;101195.78;4860482;29;45433;-61
2022/07/30 00:49:19;;;;;;;;;5.00;5.00;;;;;25.67;34.19;101168.13;4859914;29;47930;-61
2022/07/30 00:51:44;;;;;;;;;4.00;4.00;;;;;25.85;34.19;101197.38;4861756;29;45424;-61
2022/07/30 00:54:10;;;;;;;;;6.00;5.25;;;;;25.84;34.19;101192.06;4861096;29;45269;-61
2022/07/30 00:56:36;;;;;;;;;4.75;4.75;;;;;25.70;34.29;101189.16;4845050;29;45344;-61
2022/07/30 00:59:01;;;;;;;;;6.75;6.00;;;;;25.64;34.72;101193.19;4844515;29;45260;-61
2022/07/30 01:01:27;;;;;;;;;4.50;4.50;;;;;25.65;34.49;101189.25;4861225;29;45292;-61
2022/07/30 01:03:52;;;;;;;;;5.00;5.00;;;;;25.52;34.57;101193.63;4861477;29;45305;-62
2022/07/30 01:06:18;;;;;;;;;6.25;6.25;;;;;25.50;34.58;101188.31;4861834;29;45662;-62
2022/07/30 01:08:43;;;;;;;;;6.75;6.00;;;;;25.52;34.89;101193.63;4860717;29;47164;-62
2022/07/30 01:11:09;;;;;;;;;11.50;7.75;;;;;25.59;35.24;101182.88;4861043;29;45378;-62
2022/07/30 01:13:34;;;;;;;;;7.50;6.50;;;;;25.34;35.25;101168.03;4860143;29;45478;-61
2022/07/30 01:16:00;;;;;;;;;8.75;8.75;;;;;25.38;35.51;101180.34;4860115;29;45437;-62
2022/07/30 01:19:47;;;;;;;;;5.00;5.00;;;;;25.34;35.87;101187.69;4844199;29;46770;-62
2022/07/30 01:21:11;;;;;;;;;7.60;7.00;;;;;25.28;35.90;101194.50;4846810;29;45420;-62
2022/07/30 01:23:42;;;;;;;;;7.00;7.00;;;;;25.32;35.91;101198.41;4844255;29;45357;-62
2022/07/30 01:26:08;;;;;;;;;6.00;5.00;;;;;25.32;35.98;101195.59;4829315;29;45356;-63
2022/07/30 01:28:42;;;;;;;;;5.00;5.00;;;;;25.24;36.48;101188.66;4871675;29;46802;-62
2022/07/30 01:31:08;;;;;;;;;5.60;5.60;;;;;25.20;36.40;101183.94;4863343;29;45799;-61
2022/07/30 01:33:35;;;;;;;;;5.75;5.25;;;;;25.10;36.58;101197.00;4865239;29;45477;-61
2022/07/30 01:36:00;;;;;;;;;4.80;4.40;;;;;24.97;37.19;101195.75;4882863;29;45417;-62
2022/07/30 01:38:26;;;;;;;;;4.75;4.75;;;;;25.01;37.15;101184.75;4850352;29;45787;-61
2022/07/30 01:40:52;;;;;;;;;7.00;6.75;;;;;24.94;37.02;101179.50;4882691;29;46131;-62
2022/07/30 01:43:19;;;;;;;;;7.20;5.00;;;;;24.94;37.16;101185.13;4850672;29;45438;-62
2022/07/30 01:45:45;;;;;;;;;5.00;5.00;;;;;24.97;37.23;101178.06;4850580;29;45515;-61
2022/07/30 01:48:11;;;;;;;;;5.80;5.60;;;;;24.98;37.11;101186.16;4865605;29;46712;-62
2022/07/30 01:50:37;;;;;;;;;6.25;5.25;;;;;24.99;37.41;101193.50;4849934;29;45352;-62
2022/07/30 01:53:02;;;;;;;;;5.00;4.50;;;;;24.96;37.50;101187.63;4865678;29;45375;-62
2022/07/30 01:55:33;;;;;;;;;7.00;6.00;;;;;24.87;37.46;101185.47;4882746;29;45406;-62
2022/07/30 01:57:59;;;;;;;;;6.00;6.00;;;;;24.84;37.53;101183.28;4850065;29;46538;-63
2022/07/30 02:00:26;;;;;;;;;4.25;4.25;;;;;24.90;37.67;101196.09;4849858;29;45267;-62
2022/07/30 02:02:53;;;;;;;;;5.60;5.00;;;;;24.93;37.75;101191.03;4822745;29;45491;-62
2022/07/30 02:05:18;;;;;;;;;7.00;6.00;;;;;24.93;37.43;101191.03;4850160;29;45662;-63
2022/07/30 02:08:15;;;;;;;;;7.50;6.25;;;;;24.93;37.86;101191.88;4882074;29;45363;-62
2022/07/30 02:10:44;;;;;;;;;5.80;5.80;;;;;24.95;37.52;101195.22;4850477;29;45376;-61
2022/07/30 02:13:09;;;;;;;;;4.40;4.40;;;;;24.89;37.94;101187.97;4865570;29;45256;-63
2022/07/30 02:15:42;;;;;;;;;6.75;5.25;;;;;24.50;37.93;101140.09;4882163;29;45169;-62
2022/07/30 02:18:32;;;;;;;;;4.80;4.00;;;;;24.81;38.07;101200.69;4850257;29;45928;-62
2022/07/30 02:21:00;;;;;;;;;5.80;4.80;;;;;24.75;38.01;101185.84;4865505;29;45416;-62
2022/07/30 02:23:25;;;;;;;;;6.80;6.60;;;;;24.73;38.27;101193.75;4865317;29;45513;-63
2022/07/30 02:25:51;;;;;;;;;4.75;4.75;;;;;24.60;38.29;101160.78;4849803;29;45425;-61
2022/07/30 02:28:17;;;;;;;;;7.25;5.75;;;;;24.70;38.55;101188.72;4864991;29;45320;-63
2022/07/30 02:30:57;;;;;;;;;6.00;6.00;;;;;24.59;38.75;101182.38;4849559;29;45362;-62
2022/07/30 02:33:25;;;;;;;;;4.00;4.00;;;;;24.62;38.70;101180.97;4850785;29;45288;-61
2022/07/30 02:35:50;;;;;;;;;6.00;6.00;;;;;24.59;38.39;101189.97;4865345;29;45358;-62
2022/07/30 02:38:17;;;;;;;;;5.75;5.75;;;;;24.47;38.36;101165.97;4849578;29;45715;-62
2022/07/30 02:40:42;;;;;;;;;7.80;6.80;;;;;24.32;38.59;101136.09;4849413;29;45437;-62
2022/07/30 02:43:08;;;;;;;;;4.25;4.25;;;;;24.54;38.90;101176.00;4849607;29;45405;-62
2022/07/30 02:45:33;;;;;;;;;7.50;5.75;;;;;24.53;38.46;101172.34;4848829;29;45390;-62
2022/07/30 02:48:05;;;;;;;;;7.25;4.75;;;;;24.55;38.85;101172.06;4849233;29;46717;-61
2022/07/30 02:50:30;;;;;;;;;4.20;4.20;;;;;24.58;38.73;101169.50;4849818;29;45509;-62
2022/07/30 02:52:57;;;;;;;;;3.50;3.50;;;;;24.59;38.66;101171.16;4849701;29;45535;-62
2022/07/30 02:55:22;;;;;;;;;6.80;5.40;;;;;24.35;39.20;101159.91;4849315;29;45475;-61
2022/07/30 02:57:48;;;;;;;;;5.00;5.00;;;;;24.33;39.26;101171.41;4864825;29;45402;-62
2022/07/30 03:00:14;;;;;;;;;8.00;6.75;;;;;24.32;39.51;101182.94;4864747;29;45474;-62
2022/07/30 03:02:40;;;;;;;;;5.50;5.25;;;;;24.17;39.31;101155.88;4864769;29;45473;-62
2022/07/30 03:05:06;;;;;;;;;7.40;6.60;;;;;24.33;39.25;101176.22;4849584;29;45513;-60
2022/07/30 03:07:31;;;;;;;;;6.80;6.80;;;;;24.26;39.37;101175.72;4864560;29;45512;-62
2022/07/30 03:09:57;;;;;;;;;6.00;4.75;;;;;24.33;39.10;101179.00;4881810;29;45459;-64
2022/07/30 03:12:23;;;;;;;;;6.25;6.25;;;;;24.22;39.31;101176.28;4848999;29;45419;-62
2022/07/30 03:14:49;;;;;;;;;6.50;5.50;;;;;24.25;39.27;101171.22;4849377;29;45772;-62
2022/07/30 03:17:14;;;;;;;;;5.40;5.00;;;;;24.26;39.60;101181.31;4849045;29;46453;-63
2022/07/30 03:19:40;;;;;;;;;6.25;5.00;;;;;24.34;39.01;101183.50;4864363;29;45890;-62
2022/07/30 03:22:06;;;;;;;;;5.75;5.75;;;;;24.32;38.92;101175.34;4864426;29;45462;-62
2022/07/30 03:24:31;;;;;;;;;8.20;6.60;;;;;24.23;39.65;101183.56;4848993;29;45338;-62
2022/07/30 03:26:59;;;;;;;;;8.25;6.50;;;;;24.03;39.99;101166.91;4848502;29;45683;-62
2022/07/30 03:29:25;;;;;;;;;7.20;7.00;;;;;24.03;39.85;101169.69;4864107;29;45661;-62
2022/07/30 03:31:50;;;;;;;;;5.75;5.75;;;;;24.12;39.48;101173.56;4848732;29;45291;-61
2022/07/30 03:34:16;;;;;;;;;5.75;5.75;;;;;24.00;39.65;101156.28;4864726;29;45575;-62
2022/07/30 03:36:42;;;;;;;;;6.00;6.00;;;;;23.85;40.00;101138.44;4880654;29;46089;-62
2022/07/30 03:39:07;;;;;;;;;6.00;6.00;;;;;24.02;40.02;101168.84;4864311;29;45443;-62
2022/07/30 03:41:33;;;;;;;;;7.00;7.00;;;;;24.12;40.08;101164.34;4820782;29;46057;-62
2022/07/30 03:43:59;;;;;;;;;8.25;6.00;;;;;24.21;39.51;101165.38;4860862;29;45318;-62
2022/07/30 03:46:25;;;;;;;;;6.00;6.00;;;;;24.21;39.70;101165.38;4863654;29;45981;-61
2022/07/30 03:48:50;;;;;;;;;5.40;5.00;;;;;24.26;39.26;101176.53;4848672;29;45519;-63
2022/07/30 03:51:16;;;;;;;;;7.00;7.00;;;;;24.20;39.62;101164.53;4864266;29;45331;-62
2022/07/30 03:53:41;;;;;;;;;6.25;6.25;;;;;24.27;39.15;101183.81;4848829;29;45912;-62
2022/07/30 03:56:07;;;;;;;;;5.00;5.00;;;;;24.22;39.26;101179.09;4862810;29;45579;-62
2022/07/30 03:58:32;;;;;;;;;5.75;5.00;;;;;24.29;39.64;101192.78;4848428;29;45514;-62
2022/07/30 04:00:58;;;;;;;;;5.75;5.00;;;;;24.13;39.42;101158.44;4863612;29;45355;-62
2022/07/30 04:03:24;;;;;;;;;5.25;5.25;;;;;24.14;39.94;101176.94;4864390;29;45363;-62
2022/07/30 04:05:49;;;;;;;;;7.20;7.20;;;;;24.24;39.68;101187.22;4863844;29;46798;-62
2022/07/30 04:08:15;;;;;;;;;4.00;2.75;;;;;24.26;39.40;101184.13;4880633;29;45456;-62
2022/07/30 04:10:40;;;;;;;;;6.25;6.25;;;;;24.17;40.07;101186.72;4880827;29;45400;-61
2022/07/30 04:13:06;;;;;;;;;5.50;5.50;;;;;24.05;39.71;101187.06;4864060;29;45340;-61
2022/07/30 04:15:33;;;;;;;;;6.75;6.00;;;;;23.95;39.73;101162.75;4881133;29;46800;-62
2022/07/30 04:18:01;;;;;;;;;5.00;5.00;;;;;24.12;39.87;101186.75;4848706;29;45228;-62
2022/07/30 04:20:30;;;;;;;;;6.80;6.80;;;;;24.13;39.72;101188.44;4849166;29;45281;-62
2022/07/30 04:22:56;;;;;;;;;8.00;7.00;;;;;24.19;40.19;101184.47;4864102;29;45475;-62
2022/07/30 04:25:22;;;;;;;;;7.00;6.00;;;;;23.91;39.65;101140.06;4848114;29;46216;-60
2022/07/30 04:27:48;;;;;;;;;7.25;7.25;;;;;24.17;39.36;101189.53;4863951;29;45450;-63
2022/07/30 04:30:13;;;;;;;;;10.00;6.00;;;;;24.17;40.07;101184.75;4863987;29;45432;-63
2022/07/30 04:32:39;;;;;;;;;5.75;5.75;;;;;24.14;39.64;101199.38;4863852;29;45393;-62
2022/07/30 04:35:05;;;;;;;;;10.00;7.50;;;;;24.15;39.72;101201.03;4863397;29;46485;-63
2022/07/30 04:37:30;;;;;;;;;11.60;10.00;;;;;24.10;39.45;101187.06;4848204;29;45532;-61
2022/07/30 04:39:58;;;;;;;;;11.50;10.50;;;;;24.01;39.43;101177.56;4880798;29;45371;-62
2022/07/30 04:42:25;;;;;;;;;10.60;10.60;;;;;23.98;39.42;101164.97;4880301;29;45327;-63
2022/07/30 04:44:50;;;;;;;;;8.60;8.60;;;;;24.18;39.98;101196.81;4848193;29;46582;-62
2022/07/30 04:47:16;;;;;;;;;13.75;12.25;;;;;23.95;39.61;101159.94;4863358;29;45407;-61
2022/07/30 04:49:42;;;;;;;;;12.00;12.00;;;;;24.11;40.11;101196.31;4848082;29;45370;-62
2022/07/30 04:52:08;;;;;;;;;13.25;10.00;;;;;24.10;40.17;101198.25;4863491;29;45259;-61
2022/07/30 04:54:43;;;;;;;;;11.50;10.25;;;;;23.89;39.82;101175.97;4863514;29;46424;-61
2022/07/30 04:57:10;;;;;;;;;10.60;10.60;;;;;24.11;40.12;101204.72;4848355;29;45378;-61
2022/07/30 04:59:36;;;;;;;;;8.80;8.80;;;;;24.13;40.35;101203.31;4848132;29;45492;-62
2022/07/30 05:02:01;;;;;;;;;7.00;6.75;;;;;24.01;39.66;101183.19;4880292;29;45413;-62
2022/07/30 05:04:27;;;;;;;;;7.00;7.00;;;;;24.12;39.76;101201.59;4863538;29;46709;-62
2022/07/30 05:06:52;;;;;;;;;9.75;8.00;;;;;23.99;39.81;101182.63;4863345;29;45499;-63
2022/07/30 05:09:18;;;;;;;;;8.50;8.00;;;;;24.08;39.95;101197.72;4866740;29;45502;-63
2022/07/30 05:11:53;;;;;;;;;9.00;9.00;;;;;24.04;39.71;101199.41;4866764;29;45389;-60
2022/07/30 05:14:19;;;;;;;;;8.60;8.60;;;;;24.13;40.09;101214.53;4866384;29;46416;-61
2022/07/30 05:16:45;;;;;;;;;7.80;7.00;;;;;24.15;39.99;101203.84;4866400;29;45387;-61
2022/07/30 05:19:10;;;;;;;;;9.25;8.00;;;;;24.06;39.47;101191.56;4866753;29;45288;-62
2022/07/30 05:21:36;;;;;;;;;6.75;6.75;;;;;24.15;40.03;101219.81;4866910;29;45843;-62
2022/07/30 05:24:01;;;;;;;;;8.25;7.25;;;;;24.10;39.76;101206.69;4882896;29;45508;-62
2022/07/30 05:26:27;;;;;;;;;7.25;7.25;;;;;24.13;39.65;101211.72;4883440;29;45428;-62
2022/07/30 05:28:53;;;;;;;;;7.00;7.00;;;;;23.98;39.61;101197.78;4883564;29;45363;-62
2022/07/30 05:31:18;;;;;;;;;7.25;7.00;;;;;24.12;39.93;101221.22;4866695;29;45365;-61
2022/07/30 05:33:44;;;;;;;;;7.75;7.75;;;;;24.02;39.76;101204.47;4850673;29;46590;-62
2022/07/30 05:36:09;;;;;;;;;9.75;8.75;;;;;24.16;39.55;101227.94;4882795;29;45440;-62
2022/07/30 05:38:34;;;;;;;;;8.25;6.25;;;;;23.98;40.04;101193.00;4883401;29;45658;-62
2022/07/30 05:41:00;;;;;;;;;6.00;6.00;;;;;24.14;39.48;101220.94;4883471;29;45643;-62
2022/07/30 05:43:25;;;;;;;;;8.00;8.00;;;;;24.09;40.06;101221.81;4882674;29;46164;-62
2022/07/30 05:45:51;;;;;;;;;8.50;6.75;;;;;23.95;40.18;101199.19;4865913;29;45440;-62
2022/07/30 05:48:16;;;;;;;;;3.00;3.00;;;;;24.11;40.21;101230.78;4882825;29;45565;-61
2022/07/30 05:50:42;;;;;;;;;8.00;8.00;;;;;24.13;39.87;101225.72;4883249;29;45357;-62
2022/07/30 05:53:07;;;;;;;;;11.00;9.25;;;;;24.14;40.17;101224.59;4882843;29;46409;-62
2022/07/30 05:55:33;;;;;;;;;5.00;5.00;;;;;24.21;39.51;101230.72;4882886;29;45433;-62
2022/07/30 05:57:58;;;;;;;;;8.00;7.00;;;;;24.21;39.85;101229.84;4882808;29;45423;-62
2022/07/30 06:00:24;;;;;;;;;6.00;6.00;;;;;24.18;39.60;101225.66;4865781;29;45468;-62
2022/07/30 06:02:49;;;;;;;;;7.75;7.75;;;;;23.98;39.63;101192.16;4882624;29;46502;-62
2022/07/30 06:05:15;;;;;;;;;8.25;6.50;;;;;24.22;39.80;101232.38;4866215;29;45398;-62
2022/07/30 06:07:41;;;;;;;;;9.25;9.00;;;;;24.19;40.17;101229.31;4865820;29;45440;-62
2022/07/30 06:10:06;;;;;;;;;12.00;8.50;;;;;24.07;40.05;101224.91;4866005;29;45604;-61
2022/07/30 06:12:32;;;;;;;;;8.75;8.00;;;;;24.00;39.98;101223.56;4865528;29;45872;-63
2022/07/30 06:14:57;;;;;;;;;6.50;5.25;;;;;24.05;40.70;101226.31;4865767;29;45452;-62
2022/07/30 06:17:23;;;;;;;;;7.75;7.00;;;;;24.00;40.30;101209.53;4882499;29;45339;-62
2022/07/30 06:19:49;;;;;;;;;8.00;8.00;;;;;24.03;40.21;101211.75;4882017;29;45258;-62
2022/07/30 06:22:15;;;;;;;;;9.40;7.80;;;;;23.99;40.22;101222.72;4865728;29;46615;-62
2022/07/30 06:24:41;;;;;;;;;9.00;8.80;;;;;24.01;40.37;101237.25;4865317;29;45463;-61
2022/07/30 06:27:06;;;;;;;;;7.50;7.25;;;;;24.05;40.80;101237.50;4882325;29;45323;-61
2022/07/30 06:29:32;;;;;;;;;7.50;7.50;;;;;24.15;40.48;101231.88;4882525;29;45611;-61
2022/07/30 06:31:57;;;;;;;;;8.75;7.75;;;;;24.21;40.17;101246.69;4882147;29;46305;-62
2022/07/30 06:34:23;;;;;;;;;7.00;7.00;;;;;24.17;39.90;101240.00;4865627;29;45400;-61
2022/07/30 06:36:48;;;;;;;;;7.50;7.00;;;;;23.96;40.26;101207.31;4882131;29;45383;-61
2022/07/30 06:39:14;;;;;;;;;5.50;5.50;;;;;24.35;40.11;101263.69;4882597;29;45537;-61
2022/07/30 06:41:40;;;;;;;;;6.25;6.25;;;;;24.43;40.23;101263.03;4849693;29;46221;-62
2022/07/30 06:44:05;;;;;;;;;4.25;4.25;;;;;24.45;40.33;101257.97;4882049;29;45436;-61
2022/07/30 06:46:31;;;;;;;;;6.00;6.00;;;;;24.33;39.78;101243.53;4865825;29;45418;-63
2022/07/30 06:48:56;;;;;;;;;9.75;8.00;;;;;24.52;39.94;101262.41;4849604;29;45338;-62
2022/07/30 06:51:22;;;;;;;;;7.75;6.75;;;;;24.54;39.23;101263.78;4881976;29;46470;-62
2022/07/30 06:53:47;;;;;;;;;8.50;7.25;;;;;24.55;39.69;101259.03;4865079;29;45353;-62
2022/07/30 06:56:13;;;;;;;;;9.00;6.00;;;;;24.53;39.68;101256.50;4882163;29;45318;-62
2022/07/30 06:58:38;;;;;;;;;8.50;7.50;;;;;24.59;38.95;101274.16;4865254;29;45338;-62
2022/07/30 07:01:04;;;;;;;;;7.75;7.00;;;;;24.56;39.23;101269.13;4864714;29;48317;-63
2022/07/30 07:03:30;;;;;;;;;7.75;7.25;;;;;24.57;39.41;101279.19;4882010;29;45787;-64
2022/07/30 07:05:55;;;;;;;;;8.00;7.00;;;;;24.58;39.54;101284.53;4882008;29;45426;-65
2022/07/30 07:08:21;;;;;;;;;6.75;6.75;;;;;24.52;39.63;101280.09;4881665;29;47346;-65
2022/07/30 07:10:46;;;;;;;;;4.00;4.00;;;;;24.44;39.64;101273.13;4864588;29;45408;-62
2022/07/30 07:13:12;;;;;;;;;5.75;5.25;;;;;24.47;39.68;101278.16;4881103;29;45439;-62
2022/07/30 07:15:37;;;;;;;;;9.00;7.25;;;;;24.43;40.00;101279.06;4881321;29;45515;-62
2022/07/30 07:18:03;;;;;;;;;10.25;8.00;;;;;24.47;39.07;101278.16;4864813;29;45410;-63
2022/07/30 07:20:29;;;;;;;;;7.20;5.20;;;;;24.54;39.34;101293.84;4864598;29;45722;-62
2022/07/30 07:22:54;;;;;;;;;7.75;7.00;;;;;24.38;39.16;101273.47;4881364;29;45614;-63
2022/07/30 07:25:20;;;;;;;;;6.00;6.00;;;;;24.47;38.79;101286.59;4881266;29;45396;-63
2022/07/30 07:27:45;;;;;;;;;8.00;6.00;;;;;24.46;39.30;101276.50;4881852;29;45391;-63
2022/07/30 07:30:11;;;;;;;;;6.50;6.00;;;;;24.59;39.22;101291.00;4863906;29;46552;-63
2022/07/30 07:32:37;;;;;;;;;7.25;6.25;;;;;24.68;38.67;101292.00;4881096;29;45642;-62
2022/07/30 07:35:03;;;;;;;;;6.00;6.00;;;;;24.72;39.03;101293.09;4828980;29;45393;-63
2022/07/30 07:37:28;;;;;;;;;6.80;6.80;;;;;24.75;38.83;101288.84;4864526;29;45522;-63
2022/07/30 07:39:54;;;;;;;;;7.50;7.50;;;;;24.62;38.95;101265.97;4881099;29;45713;-62
2022/07/30 07:42:19;;;;;;;;;8.00;6.25;;;;;24.80;38.94;101288.84;4880949;29;45400;-63
2022/07/30 07:44:45;;;;;;;;;7.00;6.00;;;;;24.63;38.84;101266.81;4864393;29;45569;-62
2022/07/30 07:47:10;;;;;;;;;9.75;8.00;;;;;24.69;39.01;101281.59;4864667;29;45304;-63
2022/07/30 07:49:36;;;;;;;;;8.25;8.25;;;;;24.70;39.54;101284.13;4863665;29;46366;-62
2022/07/30 07:52:01;;;;;;;;;7.50;5.75;;;;;24.72;39.32;101284.69;4863725;29;45784;-62
2022/07/30 07:54:27;;;;;;;;;7.25;7.00;;;;;24.61;39.25;101264.28;4863654;29;45447;-61
2022/07/30 07:56:54;;;;;;;;;8.00;7.00;;;;;24.79;39.84;101281.53;4881343;29;45292;-63
2022/07/30 07:59:20;;;;;;;;;8.60;8.60;;;;;24.73;39.90;101269.53;4880377;29;45707;-62
2022/07/30 08:01:45;;;;;;;;;8.75;7.25;;;;;24.74;39.83;101290.84;4864009;29;45387;-63
2022/07/30 08:04:11;;;;;;;;;11.00;10.00;;;;;24.79;39.34;101284.31;4861319;29;45413;-62
2022/07/30 08:06:36;;;;;;;;;10.75;9.00;;;;;24.87;39.62;101285.69;4863288;29;45343;-62
2022/07/30 08:09:02;;;;;;;;;8.25;7.25;;;;;24.92;39.57;101282.00;4878613;29;46473;-62
2022/07/30 08:11:27;;;;;;;;;6.75;6.00;;;;;24.96;39.50;101274.66;4862545;29;45487;-63
2022/07/30 08:13:53;;;;;;;;;7.75;7.75;;;;;24.93;39.22;101272.44;4879273;29;45372;-63
2022/07/30 08:16:19;;;;;;;;;6.00;6.00;;;;;25.01;39.33;101285.81;4880446;29;45419;-64
2022/07/30 08:18:44;;;;;;;;;9.00;8.00;;;;;25.10;38.57;101277.59;4861794;29;45334;-61
2022/07/30 08:21:10;;;;;;;;;7.75;6.50;;;;;25.09;39.13;101265.53;4880844;29;45359;-62
2022/07/30 08:23:36;;;;;;;;;7.75;7.00;;;;;25.28;38.82;101278.78;4879466;29;45367;-62
2022/07/30 08:26:01;;;;;;;;;12.00;10.00;;;;;25.37;38.25;101281.75;4880682;29;45404;-61
2022/07/30 08:28:27;;;;;;;;;11.25;10.75;;;;;25.47;38.34;101273.22;4880373;29;46541;-62
2022/07/30 08:30:52;;;;;;;;;13.00;12.00;;;;;25.53;37.66;101274.00;4863533;29;45367;-62
2022/07/30 08:33:18;;;;;;;;;16.75;11.75;;;;;25.53;37.04;101276.81;4861931;29;45837;-62
2022/07/30 08:35:44;;;;;;;;;11.20;10.00;;;;;25.54;37.54;101270.91;4860694;29;45357;-62
2022/07/30 08:38:09;;;;;;;;;16.75;15.50;;;;;25.69;37.22;101292.34;4871826;29;46493;-62
2022/07/30 08:40:35;;;;;;;;;7.75;7.75;;;;;25.54;36.75;101268.09;4872837;29;45411;-62
2022/07/30 08:43:05;;;;;;;;;7.25;7.25;;;;;25.73;36.65;101297.34;4849907;29;45481;-62
2022/07/30 08:45:31;;;;;;;;;7.20;7.20;;;;;25.74;36.93;101293.41;4880552;29;45558;-62
2022/07/30 08:47:56;;;;;;;;;9.60;7.60;;;;;25.80;36.85;101293.03;4832151;29;46717;-62
2022/07/30 08:50:22;;;;;;;;;7.00;5.75;;;;;25.78;36.06;101291.66;4829111;29;45355;-62
2022/07/30 08:52:48;;;;;;;;;5.25;5.00;;;;;25.68;36.25;101273.78;4844429;29;45333;-63
2022/07/30 08:55:13;;;;;;;;;7.50;7.00;;;;;25.79;35.90;101270.84;4844937;29;45674;-61
2022/07/30 08:57:39;;;;;;;;;5.25;5.25;;;;;25.82;35.71;101273.06;4844562;29;46533;-62
2022/07/30 09:00:07;;;;;;;;;6.50;6.50;;;;;26.01;35.85;101297.50;4861811;29;45502;-61
2022/07/30 09:02:33;;;;;;;;;6.60;5.80;;;;;25.98;35.01;101285.75;4863408;29;45396;-61
2022/07/30 09:04:59;;;;;;;;;6.25;5.50;;;;;26.05;35.30;101290.16;4875312;29;46119;-61
2022/07/30 09:07:24;;;;;;;;;5.50;4.50;;;;;26.12;35.18;101301.84;4847558;29;46374;-62
2022/07/30 09:09:50;;;;;;;;;5.75;4.00;;;;;26.07;35.45;101276.59;4862985;29;45389;-61
2022/07/30 09:12:34;;;;;;;;;6.75;4.75;;;;;26.20;34.57;101291.91;4878355;29;45542;-61
2022/07/30 09:15:04;;;;;;;;;3.80;3.80;;;;;26.26;34.71;101293.53;4879636;29;45311;-61
2022/07/30 09:17:44;;;;;;;;;6.00;6.00;;;;;26.31;34.42;101290.59;4848106;29;46714;-61
2022/07/30 09:20:09;;;;;;;;;6.00;4.80;;;;;26.41;34.87;101294.41;4869650;29;45434;-66
2022/07/30 09:22:41;;;;;;;;;3.00;3.00;;;;;26.33;33.63;101274.28;4840026;29;45842;-65
2022/07/30 09:25:07;;;;;;;;;4.60;4.60;;;;;26.39;32.38;101267.41;4840176;29;45811;-67
2022/07/30 09:27:46;;;;;;;;;4.00;4.00;;;;;26.57;31.81;101297.78;4858020;29;48545;-66
2022/07/30 09:30:12;;;;;;;;;7.40;6.00;;;;;26.55;32.45;101292.47;4839860;29;45489;-64
2022/07/30 09:32:50;;;;;;;;;6.00;6.00;;;;;26.55;33.00;101300.91;4856825;29;45501;-64
2022/07/30 09:35:16;;;;;;;;;6.60;5.00;;;;;26.58;32.55;101303.13;4840339;29;45633;-65
2022/07/30 09:37:42;;;;;;;;;5.60;5.60;;;;;26.62;32.64;101315.41;4859074;29;46495;-65
2022/07/30 09:40:16;;;;;;;;;4.25;4.25;;;;;26.63;32.58;101305.00;4818081;29;45850;-64
2022/07/30 09:42:41;;;;;;;;;4.60;4.20;;;;;26.69;32.59;101298.16;4858558;29;45406;-62
2022/07/30 09:45:10;;;;;;;;;4.00;4.00;;;;;26.75;33.54;101296.91;4843412;29;45332;-64
2022/07/30 09:47:38;;;;;;;;;4.00;4.00;;;;;26.75;32.99;101298.88;4858272;29;47084;-61
2022/07/30 09:50:10;;;;;;;;;6.80;6.00;;;;;26.72;32.10;101308.78;4875384;29;45707;-65
2022/07/30 09:52:36;;;;;;;;;3.80;3.80;;;;;26.64;34.09;101301.88;4857126;29;45410;-63
2022/07/30 09:55:02;;;;;;;;;5.80;5.20;;;;;26.70;33.04;101302.63;4860301;29;45674;-64
2022/07/30 09:57:28;;;;;;;;;6.00;6.00;;;;;26.73;33.23;101304.00;4845673;29;46543;-63
2022/07/30 09:59:54;;;;;;;;;6.50;5.50;;;;;26.81;32.61;101300.47;4861462;29;45462;-64
2022/07/30 10:02:25;;;;;;;;;5.60;5.40;;;;;26.83;33.29;101280.44;4861078;29;45546;-63
2022/07/30 10:04:50;;;;;;;;;6.00;4.00;;;;;26.95;32.75;101280.81;4846802;29;45422;-62
2022/07/30 10:07:18;;;;;;;;;6.00;4.75;;;;;27.11;33.33;101295.41;4845370;29;46936;-63
2022/07/30 10:09:44;;;;;;;;;5.00;5.00;;;;;27.19;32.56;101294.72;4846083;29;45867;-62
2022/07/30 10:12:09;;;;;;;;;6.00;5.00;;;;;27.25;32.75;101292.59;4861208;29;45903;-63
2022/07/30 10:14:36;;;;;;;;;4.00;4.00;;;;;27.35;32.78;101297.19;4861424;29;45463;-63
2022/07/30 10:17:02;;;;;;;;;6.00;4.80;;;;;27.39;32.22;101300.22;4845286;29;45580;-63
2022/07/30 10:19:27;;;;;;;;;7.25;5.25;;;;;27.50;33.26;101306.47;4836547;29;45582;-63
2022/07/30 10:21:56;;;;;;;;;4.50;4.00;;;;;27.57;33.11;101288.03;4842497;29;45902;-64
2022/07/30 10:24:21;;;;;;;;;5.00;5.00;;;;;27.71;32.02;101304.09;4845390;29;45924;-63
2022/07/30 10:26:47;;;;;;;;;4.75;4.75;;;;;27.73;32.40;101288.53;4861209;29;45606;-62
2022/07/30 10:29:15;;;;;;;;;5.25;5.25;;;;;27.78;33.04;101292.38;4861243;29;45801;-63
2022/07/30 10:31:40;;;;;;;;;4.00;4.00;;;;;27.82;32.09;101291.44;4860918;29;45889;-63
2022/07/30 10:34:06;;;;;;;;;4.50;4.25;;;;;27.85;32.65;101287.97;4861089;29;45594;-63
2022/07/30 10:36:31;;;;;;;;;5.00;5.00;;;;;27.70;31.89;101266.59;4829428;29;47120;-64
2022/07/30 10:38:57;;;;;;;;;6.25;4.50;;;;;27.80;32.15;101282.44;4833156;29;45632;-61
2022/07/30 10:41:45;;;;;;;;;5.50;5.00;;;;;27.70;31.88;101275.06;4837973;29;45773;-63
2022/07/30 10:44:37;;;;;;;;;5.00;5.00;;;;;27.76;32.43;101270.16;4840686;29;45453;-62
2022/07/30 10:47:10;;;;;;;;;4.40;4.40;;;;;27.81;31.94;101272.00;4842214;29;45807;-63
2022/07/30 10:49:36;;;;;;;;;5.40;5.40;;;;;27.73;32.06;101237.78;4842297;29;45616;-63
2022/07/30 10:52:01;;;;;;;;;4.25;4.25;;;;;27.87;31.91;101251.00;4842459;29;45513;-61
2022/07/30 10:54:33;;;;;;;;;6.00;5.00;;;;;27.90;31.71;101246.72;4859622;29;45813;-62
2022/07/30 10:57:05;;;;;;;;;6.00;6.00;;;;;28.06;31.62;101264.09;4870258;29;47005;-59
2022/07/30 11:00:00;;;;;;;;;3.80;3.20;;;;;28.18;31.45;101272.84;4860883;29;45923;-58
2022/07/30 11:02:27;;;;;;;;;5.20;5.20;;;;;28.21;31.50;101260.06;4856207;29;45453;-62
2022/07/30 11:05:27;;;;;;;;;7.00;6.00;;;;;28.27;32.11;101268.13;4845460;29;45825;-63
2022/07/30 11:07:52;;;;;;;;;4.80;4.80;;;;;28.28;31.86;101263.31;4845893;29;45939;-64
2022/07/30 11:10:53;;;;;;;;;4.25;4.25;;;;;28.34;31.89;101262.00;4860531;29;45460;-63
2022/07/30 11:13:41;;;;;;;;;4.40;4.40;;;;;28.40;32.36;101257.09;4818476;29;45558;-63
2022/07/30 11:16:07;;;;;;;;;4.60;4.60;;;;;28.42;32.14;101254.75;4859634;29;45471;-62
2022/07/30 11:18:32;;;;;;;;;6.25;6.00;;;;;28.45;31.75;101233.53;4860082;29;45609;-61
2022/07/30 11:21:17;;;;;;;;;5.00;5.00;;;;;28.47;31.83;101231.22;4836068;29;45417;-62
2022/07/30 11:23:44;;;;;;;;;5.40;5.40;;;;;28.51;31.49;101235.91;4876953;29;45425;-62